createdAt,value
2022-11-24T00:00:00.000Z,84.5
2022-11-24T00:15:00.000Z,84.01
2022-11-24T00:30:00.000Z,83.71
2022-11-24T00:45:00.000Z,83.49
2022-11-24T01:00:00.000Z,83.26
2022-11-24T01:15:00.000Z,83.24
2022-11-24T01:30:00.000Z,82.95
2022-11-24T01:45:00.000Z,82.71
2022-11-24T02:00:00.000Z,82.65
2022-11-24T02:15:00.000Z,82.61
2022-11-24T02:30:00.000Z,82.62
2022-11-24T02:45:00.000Z,82.41
2022-11-24T03:00:00.000Z,82.59
2022-11-24T03:15:00.000Z,82.8
2022-11-24T03:30:00.000Z,82.57
2022-11-24T03:45:00.000Z,82.21
2022-11-24T04:15:00.000Z,81.85
2022-11-24T04:15:00.000Z,81.88
2022-11-24T04:30:00.000Z,81.98
2022-11-24T04:45:00.000Z,82.27
2022-11-24T05:00:00.000Z,82.2
2022-11-24T05:15:00.000Z,81.88
2022-11-24T05:30:00.000Z,81.8
2022-11-24T05:45:00.000Z,81.75
2022-11-24T06:00:00.000Z,81.97
2022-11-24T06:15:00.000Z,81.51
2022-11-24T06:30:00.000Z,81.13
2022-11-24T06:45:00.000Z,81
2022-11-24T07:00:00.000Z,80.82
2022-11-24T07:15:00.000Z,80.52
2022-11-24T07:30:00.000Z,80.11
2022-11-24T07:45:00.000Z,79.58
2022-11-24T08:00:00.000Z,78.97
2022-11-24T08:15:00.000Z,78.24
2022-11-24T08:30:00.000Z,77.59
2022-11-24T08:45:00.000Z,76.3
2022-11-24T09:00:00.000Z,74.01
2022-11-24T09:15:00.000Z,71.22
2022-11-24T09:30:00.000Z,70.24
2022-11-24T09:45:00.000Z,69.69
2022-11-24T10:00:00.000Z,71.87
2022-11-24T10:15:00.000Z,72.48
2022-11-24T10:30:00.000Z,69.4
2022-11-24T10:45:00.000Z,70.2
2022-11-24T11:00:00.000Z,67.83
2022-11-24T11:30:00.000Z,67.83
2022-11-24T11:45:00.000Z,64.54
2022-11-24T12:00:00.000Z,61.23
2022-11-24T12:15:00.000Z,62.05
2022-11-24T12:30:00.000Z,67.11
2022-11-24T12:45:00.000Z,70.95
2022-11-24T13:00:00.000Z,72.51
2022-11-24T13:15:00.000Z,73.35
2022-11-24T13:30:00.000Z,71.98
2022-11-24T13:45:00.000Z,70.77
2022-11-24T14:00:00.000Z,72.02
2022-11-24T14:15:00.000Z,74.98
2022-11-24T14:30:00.000Z,76.84
2022-11-24T14:45:00.000Z,77.49
2022-11-24T15:00:00.000Z,79.42
2022-11-24T15:15:00.000Z,81.44
2022-11-24T15:30:00.000Z,82.66
2022-11-24T15:45:00.000Z,82.88
2022-11-24T16:00:00.000Z,81.61
2022-11-24T16:15:00.000Z,79.43
2022-11-24T16:30:00.000Z,77.52
2022-11-24T16:45:00.000Z,79.74
2022-11-24T17:00:00.000Z,80.11
2022-11-24T17:15:00.000Z,82.06
2022-11-24T17:30:00.000Z,83.03
2022-11-24T17:45:00.000Z,83.46
2022-11-24T18:00:00.000Z,83.04
2022-11-24T18:15:00.000Z,82.81
2022-11-24T18:30:00.000Z,82.56
2022-11-24T18:45:00.000Z,82.16
2022-11-24T19:00:00.000Z,82.68
2022-11-24T19:15:00.000Z,83.66
2022-11-24T19:30:00.000Z,83.17
2022-11-24T19:45:00.000Z,82.87
2022-11-24T20:00:00.000Z,83.34
2022-11-24T20:15:00.000Z,82.93
2022-11-24T20:30:00.000Z,82.41
2022-11-24T20:45:00.000Z,81.63
2022-11-24T21:00:00.000Z,81.33
2022-11-24T21:15:00.000Z,81.44
2022-11-24T21:30:00.000Z,81.77
2022-11-24T21:45:00.000Z,81.88
2022-11-24T22:00:00.000Z,81.65
2022-11-24T22:15:00.000Z,82.27
2022-11-24T22:30:00.000Z,82.68
2022-11-24T22:45:00.000Z,82.7
2022-11-24T23:00:00.000Z,80.98
2022-11-24T23:15:00.000Z,81.64
2022-11-24T23:30:00.000Z,82.31
2022-11-24T23:45:00.000Z,82.67
